sensor_id;sensor_type;location;lat;lon;timestamp;P1;durP1;ratioP1;P2;durP2;ratioP2
13493;SDS011;6819;50.886;4.332;2023-03-08T00:01:40;15.45;;;8.25;;
13493;SDS011;6819;50.886;4.332;2023-03-08T00:04:08;14.60;;;8.18;;
13493;SDS011;6819;50.886;4.332;2023-03-08T00:06:35;18.63;;;8.88;;
13493;SDS011;6819;50.886;4.332;2023-03-08T00:09:01;18.65;;;9.18;;
13493;SDS011;6819;50.886;4.332;2023-03-08T00:11:27;14.82;;;8.25;;
13493;SDS011;6819;50.886;4.332;2023-03-08T00:13:54;13.98;;;8.35;;
13493;SDS011;6819;50.886;4.332;2023-03-08T00:16:20;15.23;;;7.75;;
13493;SDS011;6819;50.886;4.332;2023-03-08T00:18:46;17.00;;;9.32;;
13493;SDS011;6819;50.886;4.332;2023-03-08T00:21:14;14.02;;;7.95;;
13493;SDS011;6819;50.886;4.332;2023-03-08T00:23:40;18.17;;;8.52;;
13493;SDS011;6819;50.886;4.332;2023-03-08T00:26:06;16.83;;;8.35;;
13493;SDS011;6819;50.886;4.332;2023-03-08T00:28:33;17.48;;;8.70;;
13493;SDS011;6819;50.886;4.332;2023-03-08T00:31:00;15.55;;;8.68;;
13493;SDS011;6819;50.886;4.332;2023-03-08T00:33:26;19.25;;;8.65;;
13493;SDS011;6819;50.886;4.332;2023-03-08T00:35:56;16.75;;;8.90;;
13493;SDS011;6819;50.886;4.332;2023-03-08T00:38:23;19.42;;;8.40;;
13493;SDS011;6819;50.886;4.332;2023-03-08T00:40:49;18.95;;;8.60;;
13493;SDS011;6819;50.886;4.332;2023-03-08T00:43:15;15.38;;;8.20;;
13493;SDS011;6819;50.886;4.332;2023-03-08T00:45:41;15.15;;;8.23;;
13493;SDS011;6819;50.886;4.332;2023-03-08T00:48:07;15.25;;;8.02;;
13493;SDS011;6819;50.886;4.332;2023-03-08T00:50:33;13.07;;;7.15;;
13493;SDS011;6819;50.886;4.332;2023-03-08T00:52:59;17.17;;;7.78;;
13493;SDS011;6819;50.886;4.332;2023-03-08T00:55:25;11.35;;;6.57;;
13493;SDS011;6819;50.886;4.332;2023-03-08T00:57:51;14.80;;;7.00;;
13493;SDS011;6819;50.886;4.332;2023-03-08T01:00:17;17.35;;;7.70;;
13493;SDS011;6819;50.886;4.332;2023-03-08T01:02:43;18.02;;;8.07;;
13493;SDS011;6819;50.886;4.332;2023-03-08T01:05:09;14.68;;;7.82;;
13493;SDS011;6819;50.886;4.332;2023-03-08T01:07:35;13.75;;;7.30;;
13493;SDS011;6819;50.886;4.332;2023-03-08T01:10:02;15.27;;;7.30;;
13493;SDS011;6819;50.886;4.332;2023-03-08T01:12:30;11.57;;;6.28;;
13493;SDS011;6819;50.886;4.332;2023-03-08T01:14:56;9.85;;;5.88;;
13493;SDS011;6819;50.886;4.332;2023-03-08T01:17:23;10.05;;;5.35;;
13493;SDS011;6819;50.886;4.332;2023-03-08T01:19:49;8.95;;;5.30;;
13493;SDS011;6819;50.886;4.332;2023-03-08T01:22:15;9.68;;;4.90;;
13493;SDS011;6819;50.886;4.332;2023-03-08T01:24:44;9.70;;;5.53;;
13493;SDS011;6819;50.886;4.332;2023-03-08T01:27:10;10.23;;;4.88;;
13493;SDS011;6819;50.886;4.332;2023-03-08T01:29:36;9.45;;;5.32;;
13493;SDS011;6819;50.886;4.332;2023-03-08T01:32:03;10.07;;;4.85;;
13493;SDS011;6819;50.886;4.332;2023-03-08T01:34:29;7.28;;;4.38;;
13493;SDS011;6819;50.886;4.332;2023-03-08T01:36:55;10.40;;;5.70;;
13493;SDS011;6819;50.886;4.332;2023-03-08T01:39:21;8.43;;;4.95;;
13493;SDS011;6819;50.886;4.332;2023-03-08T01:41:47;8.68;;;4.75;;
13493;SDS011;6819;50.886;4.332;2023-03-08T01:44:14;8.55;;;5.18;;
13493;SDS011;6819;50.886;4.332;2023-03-08T01:46:41;9.00;;;5.25;;
13493;SDS011;6819;50.886;4.332;2023-03-08T01:49:08;8.65;;;4.82;;
13493;SDS011;6819;50.886;4.332;2023-03-08T01:51:37;7.55;;;3.97;;
13493;SDS011;6819;50.886;4.332;2023-03-08T01:56:48;7.10;;;3.72;;
13493;SDS011;6819;50.886;4.332;2023-03-08T01:59:15;8.25;;;3.80;;
13493;SDS011;6819;50.886;4.332;2023-03-08T02:01:42;8.75;;;3.55;;
13493;SDS011;6819;50.886;4.332;2023-03-08T02:04:09;8.48;;;3.92;;
13493;SDS011;6819;50.886;4.332;2023-03-08T02:06:36;9.82;;;3.08;;
13493;SDS011;6819;50.886;4.332;2023-03-08T02:09:02;5.68;;;2.65;;
13493;SDS011;6819;50.886;4.332;2023-03-08T02:11:29;6.38;;;3.25;;
13493;SDS011;6819;50.886;4.332;2023-03-08T02:13:55;5.38;;;3.00;;
13493;SDS011;6819;50.886;4.332;2023-03-08T02:16:21;5.85;;;3.13;;
13493;SDS011;6819;50.886;4.332;2023-03-08T02:18:55;8.10;;;4.03;;
13493;SDS011;6819;50.886;4.332;2023-03-08T02:21:22;7.13;;;3.45;;
13493;SDS011;6819;50.886;4.332;2023-03-08T02:23:48;5.70;;;2.97;;
13493;SDS011;6819;50.886;4.332;2023-03-08T02:26:14;6.97;;;3.20;;
13493;SDS011;6819;50.886;4.332;2023-03-08T02:28:41;5.38;;;3.22;;
13493;SDS011;6819;50.886;4.332;2023-03-08T02:31:07;5.72;;;2.72;;
13493;SDS011;6819;50.886;4.332;2023-03-08T02:33:33;5.32;;;3.30;;
13493;SDS011;6819;50.886;4.332;2023-03-08T02:36:02;4.20;;;2.45;;
13493;SDS011;6819;50.886;4.332;2023-03-08T02:38:29;5.38;;;2.92;;
13493;SDS011;6819;50.886;4.332;2023-03-08T02:40:55;8.18;;;3.45;;
13493;SDS011;6819;50.886;4.332;2023-03-08T02:43:21;9.10;;;3.28;;
13493;SDS011;6819;50.886;4.332;2023-03-08T02:45:47;6.03;;;3.28;;
13493;SDS011;6819;50.886;4.332;2023-03-08T02:48:13;8.30;;;3.22;;
13493;SDS011;6819;50.886;4.332;2023-03-08T02:50:39;6.18;;;3.20;;
13493;SDS011;6819;50.886;4.332;2023-03-08T02:53:05;7.97;;;3.53;;
13493;SDS011;6819;50.886;4.332;2023-03-08T02:55:32;7.43;;;3.55;;
13493;SDS011;6819;50.886;4.332;2023-03-08T02:58:05;7.63;;;3.90;;
13493;SDS011;6819;50.886;4.332;2023-03-08T03:00:31;5.72;;;3.05;;
13493;SDS011;6819;50.886;4.332;2023-03-08T03:02:57;7.43;;;3.78;;
13493;SDS011;6819;50.886;4.332;2023-03-08T03:05:23;7.57;;;3.83;;
13493;SDS011;6819;50.886;4.332;2023-03-08T03:07:49;5.80;;;3.70;;
13493;SDS011;6819;50.886;4.332;2023-03-08T03:10:15;7.07;;;3.15;;
13493;SDS011;6819;50.886;4.332;2023-03-08T03:12:42;8.43;;;3.60;;
13493;SDS011;6819;50.886;4.332;2023-03-08T03:15:08;7.78;;;3.92;;
13493;SDS011;6819;50.886;4.332;2023-03-08T03:17:35;7.65;;;3.55;;
13493;SDS011;6819;50.886;4.332;2023-03-08T03:20:01;6.95;;;3.63;;
13493;SDS011;6819;50.886;4.332;2023-03-08T03:22:29;6.50;;;3.45;;
13493;SDS011;6819;50.886;4.332;2023-03-08T03:24:55;8.48;;;3.85;;
13493;SDS011;6819;50.886;4.332;2023-03-08T03:27:21;7.88;;;4.20;;
13493;SDS011;6819;50.886;4.332;2023-03-08T03:29:47;8.07;;;3.92;;
13493;SDS011;6819;50.886;4.332;2023-03-08T03:32:13;8.43;;;3.72;;
13493;SDS011;6819;50.886;4.332;2023-03-08T03:34:39;9.27;;;3.60;;
13493;SDS011;6819;50.886;4.332;2023-03-08T03:37:05;6.72;;;3.83;;
13493;SDS011;6819;50.886;4.332;2023-03-08T03:39:34;8.05;;;4.03;;
13493;SDS011;6819;50.886;4.332;2023-03-08T03:42:00;9.57;;;4.03;;
13493;SDS011;6819;50.886;4.332;2023-03-08T03:44:29;8.63;;;4.43;;
13493;SDS011;6819;50.886;4.332;2023-03-08T03:46:55;9.77;;;4.35;;
13493;SDS011;6819;50.886;4.332;2023-03-08T03:49:22;7.72;;;3.88;;
13493;SDS011;6819;50.886;4.332;2023-03-08T03:51:48;8.20;;;3.80;;
13493;SDS011;6819;50.886;4.332;2023-03-08T03:54:14;8.30;;;4.32;;
13493;SDS011;6819;50.886;4.332;2023-03-08T03:56:40;8.02;;;3.47;;
13493;SDS011;6819;50.886;4.332;2023-03-08T03:59:06;7.85;;;4.18;;
13493;SDS011;6819;50.886;4.332;2023-03-08T04:01:32;8.05;;;3.83;;
13493;SDS011;6819;50.886;4.332;2023-03-08T04:03:58;8.70;;;4.13;;
13493;SDS011;6819;50.886;4.332;2023-03-08T04:06:28;9.65;;;3.83;;
13493;SDS011;6819;50.886;4.332;2023-03-08T04:08:55;6.07;;;3.03;;
13493;SDS011;6819;50.886;4.332;2023-03-08T04:11:23;8.55;;;3.42;;
13493;SDS011;6819;50.886;4.332;2023-03-08T04:13:49;6.22;;;3.83;;
13493;SDS011;6819;50.886;4.332;2023-03-08T04:16:16;9.27;;;3.15;;
13493;SDS011;6819;50.886;4.332;2023-03-08T04:18:43;6.10;;;3.80;;
13493;SDS011;6819;50.886;4.332;2023-03-08T04:21:09;5.70;;;3.22;;
13493;SDS011;6819;50.886;4.332;2023-03-08T04:23:35;5.53;;;3.10;;
13493;SDS011;6819;50.886;4.332;2023-03-08T04:26:01;6.80;;;3.42;;
13493;SDS011;6819;50.886;4.332;2023-03-08T04:28:27;7.00;;;3.83;;
13493;SDS011;6819;50.886;4.332;2023-03-08T04:30:53;7.55;;;3.35;;
13493;SDS011;6819;50.886;4.332;2023-03-08T04:33:19;7.85;;;4.25;;
13493;SDS011;6819;50.886;4.332;2023-03-08T04:35:46;5.03;;;2.78;;
13493;SDS011;6819;50.886;4.332;2023-03-08T04:38:12;10.23;;;4.18;;
13493;SDS011;6819;50.886;4.332;2023-03-08T04:40:38;6.05;;;3.60;;
13493;SDS011;6819;50.886;4.332;2023-03-08T04:43:22;6.65;;;3.97;;
13493;SDS011;6819;50.886;4.332;2023-03-08T04:45:48;6.20;;;3.63;;
13493;SDS011;6819;50.886;4.332;2023-03-08T04:48:14;6.72;;;3.75;;
13493;SDS011;6819;50.886;4.332;2023-03-08T04:50:40;6.60;;;3.58;;
13493;SDS011;6819;50.886;4.332;2023-03-08T04:53:06;8.70;;;3.95;;
13493;SDS011;6819;50.886;4.332;2023-03-08T04:55:34;7.35;;;3.78;;
13493;SDS011;6819;50.886;4.332;2023-03-08T04:58:01;11.40;;;4.40;;
13493;SDS011;6819;50.886;4.332;2023-03-08T05:00:27;8.77;;;4.50;;
13493;SDS011;6819;50.886;4.332;2023-03-08T05:02:53;7.15;;;3.90;;
13493;SDS011;6819;50.886;4.332;2023-03-08T05:05:19;7.03;;;4.00;;
13493;SDS011;6819;50.886;4.332;2023-03-08T05:07:45;7.93;;;3.85;;
13493;SDS011;6819;50.886;4.332;2023-03-08T05:10:11;6.85;;;3.50;;
13493;SDS011;6819;50.886;4.332;2023-03-08T05:12:37;6.35;;;3.88;;
13493;SDS011;6819;50.886;4.332;2023-03-08T05:15:03;7.18;;;3.58;;
13493;SDS011;6819;50.886;4.332;2023-03-08T05:17:29;5.40;;;3.35;;
13493;SDS011;6819;50.886;4.332;2023-03-08T05:19:55;5.38;;;3.22;;
13493;SDS011;6819;50.886;4.332;2023-03-08T05:22:21;6.80;;;3.17;;
13493;SDS011;6819;50.886;4.332;2023-03-08T05:24:47;7.63;;;3.40;;
13493;SDS011;6819;50.886;4.332;2023-03-08T05:27:13;7.63;;;4.03;;
13493;SDS011;6819;50.886;4.332;2023-03-08T05:29:39;4.93;;;2.90;;
13493;SDS011;6819;50.886;4.332;2023-03-08T05:32:05;8.63;;;3.30;;
13493;SDS011;6819;50.886;4.332;2023-03-08T05:34:31;7.78;;;3.10;;
13493;SDS011;6819;50.886;4.332;2023-03-08T05:36:57;6.40;;;3.38;;
13493;SDS011;6819;50.886;4.332;2023-03-08T05:39:24;5.15;;;3.03;;
13493;SDS011;6819;50.886;4.332;2023-03-08T05:41:50;5.28;;;2.78;;
13493;SDS011;6819;50.886;4.332;2023-03-08T05:44:16;4.97;;;3.10;;
13493;SDS011;6819;50.886;4.332;2023-03-08T05:46:42;5.78;;;2.70;;
13493;SDS011;6819;50.886;4.332;2023-03-08T05:49:08;4.63;;;3.00;;
13493;SDS011;6819;50.886;4.332;2023-03-08T05:51:34;3.83;;;2.45;;
13493;SDS011;6819;50.886;4.332;2023-03-08T05:54:00;5.50;;;2.67;;
13493;SDS011;6819;50.886;4.332;2023-03-08T05:56:26;5.80;;;2.88;;
13493;SDS011;6819;50.886;4.332;2023-03-08T05:58:52;4.78;;;2.85;;
13493;SDS011;6819;50.886;4.332;2023-03-08T06:01:22;5.30;;;2.40;;
13493;SDS011;6819;50.886;4.332;2023-03-08T06:03:49;4.05;;;2.90;;
13493;SDS011;6819;50.886;4.332;2023-03-08T06:06:16;5.32;;;2.70;;
13493;SDS011;6819;50.886;4.332;2023-03-08T06:08:42;6.40;;;3.33;;
13493;SDS011;6819;50.886;4.332;2023-03-08T06:11:08;6.85;;;3.45;;
13493;SDS011;6819;50.886;4.332;2023-03-08T06:13:34;7.68;;;3.90;;
13493;SDS011;6819;50.886;4.332;2023-03-08T06:16:01;4.72;;;3.33;;
13493;SDS011;6819;50.886;4.332;2023-03-08T06:18:27;6.85;;;2.85;;
13493;SDS011;6819;50.886;4.332;2023-03-08T06:21:00;5.47;;;2.92;;
13493;SDS011;6819;50.886;4.332;2023-03-08T06:23:28;4.88;;;3.00;;
13493;SDS011;6819;50.886;4.332;2023-03-08T06:25:54;5.30;;;3.28;;
13493;SDS011;6819;50.886;4.332;2023-03-08T06:28:20;6.22;;;3.72;;
13493;SDS011;6819;50.886;4.332;2023-03-08T06:30:47;5.93;;;3.42;;
13493;SDS011;6819;50.886;4.332;2023-03-08T06:33:14;5.47;;;3.40;;
13493;SDS011;6819;50.886;4.332;2023-03-08T06:35:40;6.97;;;3.60;;
13493;SDS011;6819;50.886;4.332;2023-03-08T06:38:06;5.25;;;3.33;;
13493;SDS011;6819;50.886;4.332;2023-03-08T06:40:32;8.93;;;4.35;;
13493;SDS011;6819;50.886;4.332;2023-03-08T06:42:58;9.10;;;3.97;;
13493;SDS011;6819;50.886;4.332;2023-03-08T06:45:25;6.25;;;3.95;;
13493;SDS011;6819;50.886;4.332;2023-03-08T06:47:51;7.82;;;3.83;;
13493;SDS011;6819;50.886;4.332;2023-03-08T06:50:18;6.65;;;4.00;;
13493;SDS011;6819;50.886;4.332;2023-03-08T06:52:44;5.70;;;3.38;;
13493;SDS011;6819;50.886;4.332;2023-03-08T06:55:10;6.75;;;4.53;;
13493;SDS011;6819;50.886;4.332;2023-03-08T06:57:36;6.05;;;3.63;;
13493;SDS011;6819;50.886;4.332;2023-03-08T07:00:02;7.85;;;4.10;;
13493;SDS011;6819;50.886;4.332;2023-03-08T07:02:28;7.22;;;4.30;;
13493;SDS011;6819;50.886;4.332;2023-03-08T07:04:54;6.95;;;4.10;;
13493;SDS011;6819;50.886;4.332;2023-03-08T07:07:20;6.68;;;3.83;;
13493;SDS011;6819;50.886;4.332;2023-03-08T07:09:46;6.47;;;4.30;;
13493;SDS011;6819;50.886;4.332;2023-03-08T07:12:12;7.80;;;3.95;;
13493;SDS011;6819;50.886;4.332;2023-03-08T07:14:38;8.25;;;4.45;;
13493;SDS011;6819;50.886;4.332;2023-03-08T07:17:04;7.35;;;4.60;;
13493;SDS011;6819;50.886;4.332;2023-03-08T07:19:30;9.95;;;4.80;;
13493;SDS011;6819;50.886;4.332;2023-03-08T07:21:56;7.47;;;4.70;;
13493;SDS011;6819;50.886;4.332;2023-03-08T07:24:22;7.65;;;5.03;;
13493;SDS011;6819;50.886;4.332;2023-03-08T07:26:49;8.20;;;5.00;;
13493;SDS011;6819;50.886;4.332;2023-03-08T07:29:15;9.88;;;4.90;;
13493;SDS011;6819;50.886;4.332;2023-03-08T07:31:41;7.05;;;4.30;;
13493;SDS011;6819;50.886;4.332;2023-03-08T07:34:07;9.45;;;4.85;;
13493;SDS011;6819;50.886;4.332;2023-03-08T07:36:33;6.35;;;4.00;;
13493;SDS011;6819;50.886;4.332;2023-03-08T07:38:59;9.93;;;5.18;;
13493;SDS011;6819;50.886;4.332;2023-03-08T07:41:25;8.25;;;4.65;;
13493;SDS011;6819;50.886;4.332;2023-03-08T07:43:54;7.95;;;4.18;;
13493;SDS011;6819;50.886;4.332;2023-03-08T07:46:20;5.57;;;3.70;;
13493;SDS011;6819;50.886;4.332;2023-03-08T07:48:46;6.20;;;3.78;;
13493;SDS011;6819;50.886;4.332;2023-03-08T07:51:12;6.88;;;4.57;;
13493;SDS011;6819;50.886;4.332;2023-03-08T07:53:38;5.88;;;3.67;;
13493;SDS011;6819;50.886;4.332;2023-03-08T07:56:04;7.82;;;4.32;;
13493;SDS011;6819;50.886;4.332;2023-03-08T07:58:31;7.32;;;4.18;;
13493;SDS011;6819;50.886;4.332;2023-03-08T08:00:57;6.35;;;4.20;;
13493;SDS011;6819;50.886;4.332;2023-03-08T08:03:23;6.32;;;4.10;;
13493;SDS011;6819;50.886;4.332;2023-03-08T08:05:49;6.35;;;3.50;;
13493;SDS011;6819;50.886;4.332;2023-03-08T08:08:15;7.57;;;4.38;;
13493;SDS011;6819;50.886;4.332;2023-03-08T08:10:42;7.43;;;4.07;;
13493;SDS011;6819;50.886;4.332;2023-03-08T08:13:08;7.30;;;4.43;;
13493;SDS011;6819;50.886;4.332;2023-03-08T08:15:34;8.20;;;4.57;;
13493;SDS011;6819;50.886;4.332;2023-03-08T08:18:00;6.03;;;3.75;;
13493;SDS011;6819;50.886;4.332;2023-03-08T08:20:26;9.23;;;4.47;;
13493;SDS011;6819;50.886;4.332;2023-03-08T08:22:52;6.53;;;4.18;;
13493;SDS011;6819;50.886;4.332;2023-03-08T08:25:19;5.55;;;3.70;;
13493;SDS011;6819;50.886;4.332;2023-03-08T08:27:45;6.40;;;4.15;;
13493;SDS011;6819;50.886;4.332;2023-03-08T08:30:12;6.88;;;3.92;;
13493;SDS011;6819;50.886;4.332;2023-03-08T08:32:38;6.78;;;4.20;;
13493;SDS011;6819;50.886;4.332;2023-03-08T08:35:05;8.25;;;4.65;;
13493;SDS011;6819;50.886;4.332;2023-03-08T08:37:31;7.25;;;4.72;;
13493;SDS011;6819;50.886;4.332;2023-03-08T08:39:57;8.60;;;4.90;;
13493;SDS011;6819;50.886;4.332;2023-03-08T08:42:23;8.93;;;5.03;;
13493;SDS011;6819;50.886;4.332;2023-03-08T08:44:51;9.18;;;4.97;;
13493;SDS011;6819;50.886;4.332;2023-03-08T08:47:17;9.85;;;5.13;;
13493;SDS011;6819;50.886;4.332;2023-03-08T08:49:43;10.05;;;5.63;;
13493;SDS011;6819;50.886;4.332;2023-03-08T08:52:09;10.15;;;5.15;;
13493;SDS011;6819;50.886;4.332;2023-03-08T08:54:35;8.25;;;4.65;;
13493;SDS011;6819;50.886;4.332;2023-03-08T08:57:04;8.90;;;4.03;;
13493;SDS011;6819;50.886;4.332;2023-03-08T08:59:30;6.95;;;4.03;;
13493;SDS011;6819;50.886;4.332;2023-03-08T09:01:56;7.93;;;4.68;;
13493;SDS011;6819;50.886;4.332;2023-03-08T09:04:22;5.90;;;3.67;;
13493;SDS011;6819;50.886;4.332;2023-03-08T09:06:48;6.20;;;4.30;;
13493;SDS011;6819;50.886;4.332;2023-03-08T09:09:16;6.43;;;3.45;;
13493;SDS011;6819;50.886;4.332;2023-03-08T09:11:42;5.72;;;3.75;;
13493;SDS011;6819;50.886;4.332;2023-03-08T09:14:08;6.55;;;3.80;;
13493;SDS011;6819;50.886;4.332;2023-03-08T09:16:34;5.65;;;3.65;;
13493;SDS011;6819;50.886;4.332;2023-03-08T09:19:01;6.25;;;4.05;;
13493;SDS011;6819;50.886;4.332;2023-03-08T09:21:29;8.52;;;3.75;;
13493;SDS011;6819;50.886;4.332;2023-03-08T09:23:57;4.72;;;3.30;;
13493;SDS011;6819;50.886;4.332;2023-03-08T09:26:23;5.47;;;3.28;;
13493;SDS011;6819;50.886;4.332;2023-03-08T09:28:49;5.43;;;3.28;;
13493;SDS011;6819;50.886;4.332;2023-03-08T09:31:16;7.45;;;3.65;;
13493;SDS011;6819;50.886;4.332;2023-03-08T09:33:46;9.93;;;4.30;;
13493;SDS011;6819;50.886;4.332;2023-03-08T09:36:12;5.45;;;3.70;;
13493;SDS011;6819;50.886;4.332;2023-03-08T09:38:39;6.55;;;3.70;;
13493;SDS011;6819;50.886;4.332;2023-03-08T09:43:54;4.63;;;2.97;;
13493;SDS011;6819;50.886;4.332;2023-03-08T09:46:39;8.30;;;3.78;;
13493;SDS011;6819;50.886;4.332;2023-03-08T09:49:11;7.32;;;3.63;;
13493;SDS011;6819;50.886;4.332;2023-03-08T09:51:37;8.68;;;4.05;;
13493;SDS011;6819;50.886;4.332;2023-03-08T09:54:06;5.85;;;3.63;;
13493;SDS011;6819;50.886;4.332;2023-03-08T09:56:36;5.55;;;3.25;;
13493;SDS011;6819;50.886;4.332;2023-03-08T09:59:10;8.40;;;4.10;;
13493;SDS011;6819;50.886;4.332;2023-03-08T10:06:57;6.28;;;3.80;;
13493;SDS011;6819;50.886;4.332;2023-03-08T10:09:31;6.45;;;4.28;;
13493;SDS011;6819;50.886;4.332;2023-03-08T10:12:00;9.63;;;5.00;;
13493;SDS011;6819;50.886;4.332;2023-03-08T10:14:31;7.57;;;4.80;;
13493;SDS011;6819;50.886;4.332;2023-03-08T10:17:01;9.82;;;5.47;;
13493;SDS011;6819;50.886;4.332;2023-03-08T10:19:34;8.65;;;4.63;;
13493;SDS011;6819;50.886;4.332;2023-03-08T10:22:03;10.52;;;6.07;;
13493;SDS011;6819;50.886;4.332;2023-03-08T10:24:41;10.32;;;5.57;;
13493;SDS011;6819;50.886;4.332;2023-03-08T10:27:18;13.10;;;6.00;;
13493;SDS011;6819;50.886;4.332;2023-03-08T10:29:55;9.65;;;5.40;;
13493;SDS011;6819;50.886;4.332;2023-03-08T10:32:22;8.95;;;5.15;;
13493;SDS011;6819;50.886;4.332;2023-03-08T10:34:48;10.35;;;4.80;;
13493;SDS011;6819;50.886;4.332;2023-03-08T10:37:14;8.43;;;5.40;;
13493;SDS011;6819;50.886;4.332;2023-03-08T10:39:47;9.02;;;4.85;;
13493;SDS011;6819;50.886;4.332;2023-03-08T10:42:16;8.55;;;5.68;;
13493;SDS011;6819;50.886;4.332;2023-03-08T10:44:51;9.88;;;6.03;;
13493;SDS011;6819;50.886;4.332;2023-03-08T10:47:22;9.00;;;5.70;;
13493;SDS011;6819;50.886;4.332;2023-03-08T10:49:49;9.23;;;5.53;;
13493;SDS011;6819;50.886;4.332;2023-03-08T10:52:23;9.73;;;5.28;;
13493;SDS011;6819;50.886;4.332;2023-03-08T10:57:50;10.73;;;6.25;;
13493;SDS011;6819;50.886;4.332;2023-03-08T11:02:46;12.65;;;6.88;;
13493;SDS011;6819;50.886;4.332;2023-03-08T11:05:20;11.23;;;6.32;;
13493;SDS011;6819;50.886;4.332;2023-03-08T11:07:50;11.88;;;6.40;;
13493;SDS011;6819;50.886;4.332;2023-03-08T11:10:17;11.20;;;6.22;;
13493;SDS011;6819;50.886;4.332;2023-03-08T11:12:44;11.85;;;6.97;;
13493;SDS011;6819;50.886;4.332;2023-03-08T11:15:14;10.65;;;6.97;;
13493;SDS011;6819;50.886;4.332;2023-03-08T11:17:44;11.18;;;6.63;;
13493;SDS011;6819;50.886;4.332;2023-03-08T11:28:11;12.38;;;7.60;;
13493;SDS011;6819;50.886;4.332;2023-03-08T11:38:27;12.43;;;7.47;;
13493;SDS011;6819;50.886;4.332;2023-03-08T11:56:09;11.57;;;7.65;;
13493;SDS011;6819;50.886;4.332;2023-03-08T12:01:08;15.88;;;9.32;;
13493;SDS011;6819;50.886;4.332;2023-03-08T12:03:42;13.68;;;9.00;;
13493;SDS011;6819;50.886;4.332;2023-03-08T12:06:11;18.20;;;9.68;;
13493;SDS011;6819;50.886;4.332;2023-03-08T12:11:06;16.27;;;9.38;;
13493;SDS011;6819;50.886;4.332;2023-03-08T12:13:34;15.13;;;9.32;;
13493;SDS011;6819;50.886;4.332;2023-03-08T12:21:08;16.23;;;9.20;;
13493;SDS011;6819;50.886;4.332;2023-03-08T12:26:28;16.20;;;9.35;;
13493;SDS011;6819;50.886;4.332;2023-03-08T12:28:59;16.83;;;9.10;;
13493;SDS011;6819;50.886;4.332;2023-03-08T12:31:26;14.27;;;9.18;;
13493;SDS011;6819;50.886;4.332;2023-03-08T12:33:54;15.80;;;9.95;;
13493;SDS011;6819;50.886;4.332;2023-03-08T12:36:20;17.77;;;11.07;;
13493;SDS011;6819;50.886;4.332;2023-03-08T12:38:47;16.23;;;10.65;;
13493;SDS011;6819;50.886;4.332;2023-03-08T12:41:29;16.45;;;10.18;;
13493;SDS011;6819;50.886;4.332;2023-03-08T12:44:06;15.63;;;9.77;;
13493;SDS011;6819;50.886;4.332;2023-03-08T12:46:47;16.15;;;9.50;;
13493;SDS011;6819;50.886;4.332;2023-03-08T12:49:28;14.45;;;8.57;;
13493;SDS011;6819;50.886;4.332;2023-03-08T12:51:56;16.48;;;10.05;;
13493;SDS011;6819;50.886;4.332;2023-03-08T12:54:23;15.98;;;8.65;;
13493;SDS011;6819;50.886;4.332;2023-03-08T12:56:53;15.15;;;9.20;;
13493;SDS011;6819;50.886;4.332;2023-03-08T13:04:31;15.23;;;9.70;;
13493;SDS011;6819;50.886;4.332;2023-03-08T13:07:02;15.30;;;9.00;;
13493;SDS011;6819;50.886;4.332;2023-03-08T13:19:57;17.83;;;10.30;;
13493;SDS011;6819;50.886;4.332;2023-03-08T13:22:26;16.48;;;10.02;;
13493;SDS011;6819;50.886;4.332;2023-03-08T13:27:23;16.65;;;10.25;;
13493;SDS011;6819;50.886;4.332;2023-03-08T13:29:51;15.98;;;9.93;;
13493;SDS011;6819;50.886;4.332;2023-03-08T13:32:19;16.90;;;10.23;;
13493;SDS011;6819;50.886;4.332;2023-03-08T13:34:58;16.42;;;9.65;;
13493;SDS011;6819;50.886;4.332;2023-03-08T13:37:25;15.75;;;9.98;;
13493;SDS011;6819;50.886;4.332;2023-03-08T13:39:53;17.17;;;9.77;;
13493;SDS011;6819;50.886;4.332;2023-03-08T13:42:20;18.20;;;9.25;;
13493;SDS011;6819;50.886;4.332;2023-03-08T13:44:52;15.82;;;9.50;;
13493;SDS011;6819;50.886;4.332;2023-03-08T13:47:20;15.18;;;9.07;;
13493;SDS011;6819;50.886;4.332;2023-03-08T13:49:47;16.02;;;9.80;;
13493;SDS011;6819;50.886;4.332;2023-03-08T13:52:15;15.32;;;9.48;;
13493;SDS011;6819;50.886;4.332;2023-03-08T13:54:43;17.75;;;8.95;;
13493;SDS011;6819;50.886;4.332;2023-03-08T13:57:20;14.30;;;8.15;;
13493;SDS011;6819;50.886;4.332;2023-03-08T13:59:48;14.05;;;8.90;;
13493;SDS011;6819;50.886;4.332;2023-03-08T14:02:15;15.27;;;8.98;;
13493;SDS011;6819;50.886;4.332;2023-03-08T14:04:43;17.08;;;8.57;;
13493;SDS011;6819;50.886;4.332;2023-03-08T14:07:13;15.35;;;9.98;;
13493;SDS011;6819;50.886;4.332;2023-03-08T14:09:43;17.25;;;9.52;;
13493;SDS011;6819;50.886;4.332;2023-03-08T14:12:11;16.50;;;9.50;;
13493;SDS011;6819;50.886;4.332;2023-03-08T14:14:39;18.35;;;10.43;;
13493;SDS011;6819;50.886;4.332;2023-03-08T14:17:11;15.07;;;9.48;;
13493;SDS011;6819;50.886;4.332;2023-03-08T14:19:38;15.15;;;9.00;;
13493;SDS011;6819;50.886;4.332;2023-03-08T14:22:14;13.32;;;8.32;;
13493;SDS011;6819;50.886;4.332;2023-03-08T14:24:42;15.02;;;8.55;;
13493;SDS011;6819;50.886;4.332;2023-03-08T14:29:39;15.30;;;9.57;;
13493;SDS011;6819;50.886;4.332;2023-03-08T14:34:35;14.27;;;8.43;;
13493;SDS011;6819;50.886;4.332;2023-03-08T14:37:05;16.50;;;8.93;;
13493;SDS011;6819;50.886;4.332;2023-03-08T14:39:31;15.60;;;9.43;;
13493;SDS011;6819;50.886;4.332;2023-03-08T14:42:07;14.43;;;8.45;;
13493;SDS011;6819;50.886;4.332;2023-03-08T14:44:33;14.60;;;8.95;;
13493;SDS011;6819;50.886;4.332;2023-03-08T14:47:09;13.75;;;8.13;;
13493;SDS011;6819;50.886;4.332;2023-03-08T14:49:43;14.90;;;9.05;;
13493;SDS011;6819;50.886;4.332;2023-03-08T14:52:19;14.65;;;8.77;;
13493;SDS011;6819;50.886;4.332;2023-03-08T14:54:45;15.48;;;9.75;;
13493;SDS011;6819;50.886;4.332;2023-03-08T14:57:15;14.43;;;8.85;;
13493;SDS011;6819;50.886;4.332;2023-03-08T14:59:42;15.73;;;9.32;;
13493;SDS011;6819;50.886;4.332;2023-03-08T15:02:09;14.95;;;9.32;;
13493;SDS011;6819;50.886;4.332;2023-03-08T15:04:36;15.13;;;9.02;;
13493;SDS011;6819;50.886;4.332;2023-03-08T15:07:02;15.93;;;8.73;;
13493;SDS011;6819;50.886;4.332;2023-03-08T15:09:28;15.82;;;8.98;;
13493;SDS011;6819;50.886;4.332;2023-03-08T15:11:56;13.65;;;8.90;;
13493;SDS011;6819;50.886;4.332;2023-03-08T15:14:24;17.23;;;9.45;;
13493;SDS011;6819;50.886;4.332;2023-03-08T15:16:52;15.35;;;8.48;;
13493;SDS011;6819;50.886;4.332;2023-03-08T15:19:19;13.13;;;8.40;;
13493;SDS011;6819;50.886;4.332;2023-03-08T15:21:46;15.73;;;9.20;;
13493;SDS011;6819;50.886;4.332;2023-03-08T15:24:16;15.25;;;8.98;;
13493;SDS011;6819;50.886;4.332;2023-03-08T15:26:42;21.98;;;9.68;;
13493;SDS011;6819;50.886;4.332;2023-03-08T15:31:54;16.75;;;9.50;;
13493;SDS011;6819;50.886;4.332;2023-03-08T15:34:20;15.90;;;9.70;;
13493;SDS011;6819;50.886;4.332;2023-03-08T15:36:47;17.13;;;9.70;;
13493;SDS011;6819;50.886;4.332;2023-03-08T15:39:13;17.98;;;9.80;;
13493;SDS011;6819;50.886;4.332;2023-03-08T15:41:39;18.63;;;9.65;;
13493;SDS011;6819;50.886;4.332;2023-03-08T15:44:05;15.98;;;9.30;;
13493;SDS011;6819;50.886;4.332;2023-03-08T15:46:31;18.52;;;10.20;;
13493;SDS011;6819;50.886;4.332;2023-03-08T15:48:57;17.20;;;9.57;;
13493;SDS011;6819;50.886;4.332;2023-03-08T15:51:25;16.60;;;9.40;;
13493;SDS011;6819;50.886;4.332;2023-03-08T15:53:53;17.27;;;10.32;;
13493;SDS011;6819;50.886;4.332;2023-03-08T15:56:19;15.15;;;9.35;;
13493;SDS011;6819;50.886;4.332;2023-03-08T15:58:46;20.17;;;9.60;;
13493;SDS011;6819;50.886;4.332;2023-03-08T16:01:13;17.25;;;10.02;;
13493;SDS011;6819;50.886;4.332;2023-03-08T16:03:39;16.00;;;9.60;;
13493;SDS011;6819;50.886;4.332;2023-03-08T16:06:12;16.60;;;8.90;;
13493;SDS011;6819;50.886;4.332;2023-03-08T16:08:38;16.05;;;8.57;;
13493;SDS011;6819;50.886;4.332;2023-03-08T16:11:06;17.63;;;10.27;;
13493;SDS011;6819;50.886;4.332;2023-03-08T16:13:32;19.25;;;10.32;;
13493;SDS011;6819;50.886;4.332;2023-03-08T16:15:59;18.88;;;10.63;;
13493;SDS011;6819;50.886;4.332;2023-03-08T16:18:26;19.25;;;10.20;;
13493;SDS011;6819;50.886;4.332;2023-03-08T16:20:53;20.05;;;10.30;;
13493;SDS011;6819;50.886;4.332;2023-03-08T16:23:19;18.98;;;10.07;;